Terminal Aerodrome Forecast
Issued by NWS

Home | Current Version | Previous Version | Text Only | Print | Product List | Glossary On
Versions: 1 2 3 4 5 6 7 8 9 10 11 12 13 14 15 16
000
FTUS43 KAPX 311202 RRA
TAFTVC
TAF
KTVC 311202Z 3112/0112 24007KT P6SM SCT080
     FM311400 28011G20KT P6SM BKN080
     FM312000 30011G20KT P6SM SCT080
     FM010100 27004KT P6SM SCT070=

USA.gov is the U.S. government's official web portal to all federal, state and local government web resources and services.